Time;durP1;ratioP1;P1;durP2;ratioP2;P2;SDS_P1;SDS_P2;PMS_P1;PMS_P2;Temp;Humidity;BMP_temperature;BMP_pressure;BME280_temperature;BME280_humidity;BME280_pressure;Samples;Min_cycle;Max_cycle;Signal;HPM_P1;HPM_P2
2023/07/26 00:00:35;;;;;;;24.88;8.73;;;;;;;;;;5109288;28;20563;-81
2023/07/26 00:03:01;;;;;;;17.15;8.02;;;;;;;;;;5109519;28;20467;-81
2023/07/26 00:05:27;;;;;;;18.38;8.80;;;;;;;;;;5107427;28;20024;-82
2023/07/26 00:07:53;;;;;;;17.83;9.15;;;;;;;;;;5109402;28;20032;-83
2023/07/26 00:10:19;;;;;;;19.45;8.30;;;;;;;;;;5109378;28;20090;-81
2023/07/26 00:12:45;;;;;;;20.27;8.45;;;;;;;;;;5113136;28;20028;-81
2023/07/26 00:15:11;;;;;;;19.13;8.77;;;;;;;;;;5097310;28;20020;-80
2023/07/26 00:17:37;;;;;;;18.35;9.10;;;;;;;;;;5113432;28;20024;-80
2023/07/26 00:20:04;;;;;;;18.58;8.57;;;;;;;;;;5113464;28;20024;-81
2023/07/26 00:22:30;;;;;;;19.25;7.22;;;;;;;;;;5113136;28;20024;-81
2023/07/26 00:24:59;;;;;;;17.85;8.13;;;;;;;;;;5097325;28;20491;-82
2023/07/26 00:27:25;;;;;;;20.80;8.77;;;;;;;;;;5113305;28;20020;-81
2023/07/26 00:29:51;;;;;;;16.70;8.20;;;;;;;;;;5112795;28;20016;-81
2023/07/26 00:32:17;;;;;;;20.70;8.18;;;;;;;;;;5097418;28;20020;-82
2023/07/26 00:34:44;;;;;;;20.80;7.97;;;;;;;;;;5112816;28;20031;-84
2023/07/26 00:37:10;;;;;;;23.38;8.55;;;;;;;;;;5113146;28;20020;-83
2023/07/26 00:39:36;;;;;;;18.08;8.00;;;;;;;;;;5097417;28;20095;-81
2023/07/26 00:42:03;;;;;;;19.33;8.90;;;;;;;;;;5112358;28;20024;-82
2023/07/26 00:44:29;;;;;;;24.00;9.18;;;;;;;;;;5108219;28;20055;-83
2023/07/26 00:46:55;;;;;;;19.55;9.27;;;;;;;;;;5076553;28;20107;-82
2023/07/26 00:49:22;;;;;;;19.10;8.32;;;;;;;;;;5075303;28;20023;-81
2023/07/26 00:51:48;;;;;;;24.02;8.35;;;;;;;;;;5075597;28;20059;-82
2023/07/26 00:54:14;;;;;;;16.40;8.15;;;;;;;;;;5077067;28;20029;-82
2023/07/26 00:56:40;;;;;;;18.15;8.02;;;;;;;;;;5077483;28;20016;-81
2023/07/26 00:59:06;;;;;;;16.65;7.85;;;;;;;;;;5112451;28;20030;-82
2023/07/26 01:01:33;;;;;;;21.52;8.85;;;;;;;;;;5112709;28;20054;-83
2023/07/26 01:03:59;;;;;;;21.65;8.40;;;;;;;;;;5112449;28;20027;-79
2023/07/26 01:06:34;;;;;;;15.13;8.10;;;;;;;;;;5112592;28;20020;-82
2023/07/26 01:09:08;;;;;;;18.50;8.38;;;;;;;;;;5096385;28;20095;-83
2023/07/26 01:11:48;;;;;;;20.25;7.95;;;;;;;;;;5112194;28;20038;-80
2023/07/26 01:14:17;;;;;;;21.35;8.23;;;;;;;;;;5112542;28;20020;-82
2023/07/26 01:16:44;;;;;;;17.00;9.00;;;;;;;;;;5112003;28;20532;-82
2023/07/26 01:19:10;;;;;;;17.23;7.72;;;;;;;;;;5112172;28;20371;-80
2023/07/26 01:21:36;;;;;;;17.30;8.07;;;;;;;;;;5095933;28;20031;-81
2023/07/26 01:24:03;;;;;;;21.45;8.27;;;;;;;;;;5111124;28;20020;-82
2023/07/26 01:26:29;;;;;;;31.83;10.80;;;;;;;;;;5096527;28;20478;-80
2023/07/26 01:28:55;;;;;;;24.30;7.97;;;;;;;;;;5095061;28;20028;-81
2023/07/26 01:31:22;;;;;;;22.38;8.68;;;;;;;;;;5111766;28;20024;-80
2023/07/26 01:33:51;;;;;;;27.90;9.57;;;;;;;;;;5096194;28;20024;-78
2023/07/26 01:36:17;;;;;;;29.33;8.10;;;;;;;;;;5096152;28;20053;-79
2023/07/26 01:38:44;;;;;;;27.75;8.68;;;;;;;;;;5095831;28;20016;-80
2023/07/26 01:41:11;;;;;;;26.10;7.07;;;;;;;;;;5111858;28;20027;-80
2023/07/26 01:43:37;;;;;;;29.25;8.93;;;;;;;;;;5111743;28;20024;-79
2023/07/26 01:46:03;;;;;;;22.00;8.18;;;;;;;;;;5111516;28;20107;-79
2023/07/26 01:48:29;;;;;;;26.13;9.13;;;;;;;;;;5111714;28;20116;-79
2023/07/26 01:50:56;;;;;;;21.48;7.82;;;;;;;;;;5096059;28;20024;-79
2023/07/26 01:53:22;;;;;;;22.50;8.15;;;;;;;;;;5111832;28;20016;-78
2023/07/26 01:55:48;;;;;;;22.02;8.85;;;;;;;;;;5114275;28;20093;-79
2023/07/26 01:58:14;;;;;;;29.45;8.82;;;;;;;;;;5112285;28;20051;-80
2023/07/26 02:00:40;;;;;;;23.00;7.95;;;;;;;;;;5111103;28;20030;-78
2023/07/26 02:03:06;;;;;;;22.58;9.00;;;;;;;;;;5111459;28;20030;-79
2023/07/26 02:05:32;;;;;;;25.73;9.82;;;;;;;;;;5095455;28;20478;-79
2023/07/26 02:07:58;;;;;;;20.20;8.02;;;;;;;;;;5110796;28;20024;-80
2023/07/26 02:10:24;;;;;;;29.35;8.40;;;;;;;;;;5095405;28;20044;-78
2023/07/26 02:12:50;;;;;;;22.92;8.10;;;;;;;;;;5110816;28;20020;-78
2023/07/26 02:15:16;;;;;;;25.23;8.88;;;;;;;;;;5111219;28;20020;-80
2023/07/26 02:17:42;;;;;;;24.85;9.00;;;;;;;;;;5111160;28;20012;-78
2023/07/26 02:20:09;;;;;;;24.02;8.88;;;;;;;;;;5094748;28;20391;-80
2023/07/26 02:22:35;;;;;;;28.05;9.05;;;;;;;;;;5110982;28;20020;-79
2023/07/26 02:25:02;;;;;;;26.05;9.50;;;;;;;;;;5111010;28;20016;-79
2023/07/26 02:27:28;;;;;;;29.25;8.10;;;;;;;;;;5110534;28;20476;-79
2023/07/26 02:29:54;;;;;;;26.38;8.85;;;;;;;;;;5110736;28;20038;-80
2023/07/26 02:32:20;;;;;;;23.27;8.13;;;;;;;;;;5095032;28;20102;-81
2023/07/26 02:34:46;;;;;;;21.23;8.40;;;;;;;;;;5111637;28;20067;-79
2023/07/26 02:37:12;;;;;;;24.75;9.18;;;;;;;;;;5136068;27;20032;-80
2023/07/26 02:39:38;;;;;;;22.88;8.80;;;;;;;;;;5122762;27;20538;-79
2023/07/26 02:42:04;;;;;;;28.27;8.70;;;;;;;;;;5113963;28;20027;-79
2023/07/26 02:44:31;;;;;;;27.27;8.52;;;;;;;;;;5115076;28;20387;-81
2023/07/26 02:46:57;;;;;;;25.67;8.85;;;;;;;;;;5110754;28;20064;-80
2023/07/26 02:49:23;;;;;;;26.85;9.52;;;;;;;;;;5110232;28;20020;-80
2023/07/26 02:51:49;;;;;;;26.20;7.25;;;;;;;;;;5094599;28;20028;-80
2023/07/26 02:54:15;;;;;;;26.88;7.55;;;;;;;;;;5110400;28;20055;-80
2023/07/26 02:56:41;;;;;;;25.17;9.38;;;;;;;;;;5110103;28;20024;-80
2023/07/26 02:59:07;;;;;;;18.77;7.90;;;;;;;;;;5110287;28;20081;-80
2023/07/26 03:01:33;;;;;;;27.05;8.90;;;;;;;;;;5110348;28;20047;-78
2023/07/26 03:03:59;;;;;;;18.83;8.02;;;;;;;;;;5110124;28;20028;-80
2023/07/26 03:06:26;;;;;;;27.67;8.40;;;;;;;;;;5094299;28;20052;-79
2023/07/26 03:08:53;;;;;;;25.90;8.90;;;;;;;;;;5109657;28;20024;-80
2023/07/26 03:11:19;;;;;;;27.50;8.43;;;;;;;;;;5107290;28;20036;-83
2023/07/26 03:13:47;;;;;;;26.98;10.38;;;;;;;;;;5110093;28;20040;-82
2023/07/26 03:16:16;;;;;;;26.55;8.95;;;;;;;;;;5094516;28;20027;-82
2023/07/26 03:18:42;;;;;;;24.75;8.40;;;;;;;;;;5110158;28;20074;-82
2023/07/26 03:21:08;;;;;;;22.55;9.35;;;;;;;;;;5110277;28;20032;-83
2023/07/26 03:23:34;;;;;;;24.15;8.30;;;;;;;;;;5094404;28;20054;-81
2023/07/26 03:26:04;;;;;;;24.95;9.40;;;;;;;;;;5110225;28;20020;-83
2023/07/26 03:28:30;;;;;;;30.10;9.82;;;;;;;;;;5109919;28;20054;-82
2023/07/26 03:30:56;;;;;;;27.25;8.20;;;;;;;;;;5109664;28;20035;-82
2023/07/26 03:33:23;;;;;;;26.38;9.48;;;;;;;;;;5110056;28;20020;-82
2023/07/26 03:35:49;;;;;;;25.75;8.63;;;;;;;;;;5110140;28;20031;-81
2023/07/26 03:38:15;;;;;;;22.38;8.98;;;;;;;;;;5109864;28;20431;-82
2023/07/26 03:40:41;;;;;;;27.98;10.20;;;;;;;;;;5110061;28;20024;-81
2023/07/26 03:43:08;;;;;;;27.55;9.95;;;;;;;;;;5092912;28;20020;-81
2023/07/26 03:45:34;;;;;;;23.10;9.88;;;;;;;;;;5108158;28;20032;-84
2023/07/26 03:48:00;;;;;;;27.40;9.25;;;;;;;;;;5110012;28;20490;-85
2023/07/26 03:50:27;;;;;;;28.63;10.20;;;;;;;;;;5109771;28;20038;-86
2023/07/26 03:52:53;;;;;;;19.73;8.20;;;;;;;;;;5093662;28;20028;-83
2023/07/26 03:55:19;;;;;;;24.50;9.95;;;;;;;;;;5109653;28;20027;-83
2023/07/26 03:57:45;;;;;;;27.20;8.65;;;;;;;;;;5109705;28;20467;-84
2023/07/26 04:00:11;;;;;;;29.63;8.93;;;;;;;;;;5109871;28;20028;-83
2023/07/26 04:02:37;;;;;;;26.15;9.45;;;;;;;;;;5109851;28;20115;-83
2023/07/26 04:05:04;;;;;;;27.40;10.57;;;;;;;;;;5107832;28;20051;-82
2023/07/26 04:07:30;;;;;;;25.30;11.65;;;;;;;;;;5072437;28;20016;-84
2023/07/26 04:09:58;;;;;;;27.60;9.20;;;;;;;;;;5072371;28;20374;-81
2023/07/26 04:12:24;;;;;;;22.42;9.10;;;;;;;;;;5089062;28;20058;-82
2023/07/26 04:14:51;;;;;;;20.38;7.63;;;;;;;;;;5089426;28;20077;-84
2023/07/26 04:17:17;;;;;;;25.10;7.97;;;;;;;;;;5089257;28;20017;-81
2023/07/26 04:19:43;;;;;;;24.55;9.18;;;;;;;;;;5073345;28;20067;-81
2023/07/26 04:22:09;;;;;;;23.85;7.78;;;;;;;;;;5073634;28;20024;-79
2023/07/26 04:24:35;;;;;;;26.48;8.52;;;;;;;;;;5089209;28;20400;-83
2023/07/26 04:27:02;;;;;;;28.52;8.35;;;;;;;;;;5088738;28;20024;-80
2023/07/26 04:29:28;;;;;;;26.23;8.05;;;;;;;;;;5089092;28;20530;-80
2023/07/26 04:31:54;;;;;;;24.73;9.13;;;;;;;;;;5089168;28;20048;-80
2023/07/26 04:34:20;;;;;;;18.83;7.10;;;;;;;;;;5088919;28;20074;-81
2023/07/26 04:36:46;;;;;;;21.00;8.80;;;;;;;;;;5089298;28;20016;-80
2023/07/26 04:39:12;;;;;;;21.02;8.63;;;;;;;;;;5091524;28;20048;-81
2023/07/26 04:41:38;;;;;;;23.17;8.13;;;;;;;;;;5096045;28;20066;-81
2023/07/26 04:44:04;;;;;;;17.98;7.78;;;;;;;;;;5089195;28;20040;-82
2023/07/26 04:46:30;;;;;;;22.95;8.05;;;;;;;;;;5089075;28;20051;-82
2023/07/26 04:48:56;;;;;;;20.73;7.15;;;;;;;;;;5094077;28;20050;-81
2023/07/26 04:51:23;;;;;;;25.20;7.90;;;;;;;;;;5094454;28;20025;-81
2023/07/26 04:53:50;;;;;;;25.35;7.63;;;;;;;;;;5093765;28;20033;-81
2023/07/26 04:56:16;;;;;;;23.35;7.93;;;;;;;;;;5093117;28;20024;-81
2023/07/26 04:58:42;;;;;;;26.83;8.43;;;;;;;;;;5102771;28;20020;-83
2023/07/26 05:01:09;;;;;;;20.88;8.50;;;;;;;;;;5115457;28;20067;-84
2023/07/26 05:03:36;;;;;;;29.40;8.57;;;;;;;;;;5112954;28;20020;-82
2023/07/26 05:06:03;;;;;;;27.65;8.90;;;;;;;;;;5112974;28;20020;-82
2023/07/26 05:08:29;;;;;;;19.35;8.10;;;;;;;;;;5112740;28;20032;-83
2023/07/26 05:10:55;;;;;;;19.13;8.00;;;;;;;;;;5112285;28;20072;-84
2023/07/26 05:13:23;;;;;;;23.92;7.93;;;;;;;;;;5112627;28;20062;-85
2023/07/26 05:15:49;;;;;;;20.65;8.40;;;;;;;;;;5112762;28;20024;-82
2023/07/26 05:18:15;;;;;;;20.02;8.38;;;;;;;;;;5112529;28;20102;-83
2023/07/26 05:20:42;;;;;;;22.92;8.10;;;;;;;;;;5112838;28;20406;-85
2023/07/26 05:23:08;;;;;;;25.27;8.35;;;;;;;;;;5096316;28;20028;-83
2023/07/26 05:25:34;;;;;;;19.27;7.38;;;;;;;;;;5096850;28;20031;-83
2023/07/26 05:28:01;;;;;;;22.67;8.05;;;;;;;;;;5112322;28;20047;-83
2023/07/26 05:30:27;;;;;;;20.75;8.10;;;;;;;;;;5112046;28;20028;-80
2023/07/26 05:32:53;;;;;;;23.27;8.57;;;;;;;;;;5096659;28;20031;-82
2023/07/26 05:35:19;;;;;;;18.67;7.32;;;;;;;;;;5112402;28;20031;-83
2023/07/26 05:37:45;;;;;;;21.45;7.30;;;;;;;;;;5112085;28;20054;-82
2023/07/26 05:40:11;;;;;;;19.52;8.40;;;;;;;;;;5112087;28;20023;-82
2023/07/26 05:42:37;;;;;;;18.27;7.47;;;;;;;;;;5117465;28;20031;-84
2023/07/26 05:45:04;;;;;;;19.60;8.88;;;;;;;;;;5132965;27;20024;-81
2023/07/26 05:47:30;;;;;;;23.63;8.50;;;;;;;;;;5117496;28;20107;-81
2023/07/26 05:49:56;;;;;;;21.25;7.95;;;;;;;;;;5115299;28;20020;-82
2023/07/26 05:52:23;;;;;;;21.42;7.60;;;;;;;;;;5111869;28;20036;-84
2023/07/26 05:54:49;;;;;;;22.70;8.82;;;;;;;;;;5111926;28;20028;-83
2023/07/26 05:57:15;;;;;;;21.23;7.95;;;;;;;;;;5111663;28;20021;-82
2023/07/26 05:59:41;;;;;;;22.92;7.32;;;;;;;;;;5112021;28;20131;-82
2023/07/26 06:02:07;;;;;;;19.27;8.00;;;;;;;;;;5111599;28;20483;-82
2023/07/26 06:04:34;;;;;;;22.80;7.35;;;;;;;;;;5095640;28;20099;-82
2023/07/26 06:07:00;;;;;;;21.88;7.72;;;;;;;;;;5112002;28;20051;-82
2023/07/26 06:09:26;;;;;;;23.35;8.27;;;;;;;;;;5110805;28;20059;-82
2023/07/26 06:11:52;;;;;;;19.83;7.57;;;;;;;;;;5112300;28;20028;-84
2023/07/26 06:14:18;;;;;;;22.25;8.82;;;;;;;;;;5096098;28;20024;-84
2023/07/26 06:16:44;;;;;;;25.08;7.75;;;768.60;2099.20;;;;;;5111796;28;20066;-83
2023/07/26 06:19:10;;;;;;;20.48;7.15;;;768.50;2176.00;;;;;;5111450;28;20020;-85
2023/07/26 06:21:36;;;;;;;29.77;8.57;;;;;;;;;;5112097;28;20165;-84
2023/07/26 06:24:02;;;;;;;22.23;8.10;;;;;;;;;;5111496;28;20107;-84
2023/07/26 06:26:28;;;;;;;22.25;8.05;;;;;;;;;;5111375;28;20027;-83
2023/07/26 06:28:54;;;;;;;17.05;7.03;;;;;;;;;;5110824;28;20482;-87
2023/07/26 06:31:20;;;;;;;22.02;8.40;;;;;;;;;;5112398;28;20032;-87
2023/07/26 06:33:47;;;;;;;23.15;7.43;;;;;;;;;;5112204;28;20016;-86
2023/07/26 06:36:13;;;;;;;19.92;7.40;;;;;;;;;;5112654;28;20461;-84
2023/07/26 06:38:38;;;;;;;19.98;7.20;;;793.60;2099.20;;;;;;5111708;28;20070;-87
2023/07/26 06:41:04;;;;;;;17.75;8.25;;;768.90;2099.20;;;;;;5112611;28;20032;-88
2023/07/26 06:43:30;;;;;;;25.80;8.00;;;768.90;2073.60;;;;;;5112295;28;20020;-89
2023/07/26 06:45:56;;;;;;;26.38;8.55;;;768.90;2048.00;;;;;;5094210;28;20029;-86
2023/07/26 06:48:22;;;;;;;18.00;7.10;;;768.90;2048.00;;;;;;5090771;28;20430;-87
2023/07/26 06:50:48;;;;;;;19.85;7.80;;;;;;;;;;5091497;28;20040;-85
2023/07/26 06:53:14;;;;;;;15.80;6.85;;;;;;;;;;5091219;28;20024;-89
2023/07/26 06:55:40;;;;;;;17.13;7.22;;;;;;;;;;5092301;28;20027;-87
2023/07/26 06:58:06;;;;;;;23.52;8.52;;;;;;;;;;5091201;28;20487;-87
2023/07/26 07:00:32;;;;;;;17.48;7.57;;;;;;;;;;5074789;28;20431;-86
2023/07/26 07:02:59;;;;;;;15.93;7.45;;;;;;;;;;5074756;28;20032;-87
2023/07/26 07:05:26;;;;;;;27.77;7.82;;;;;;;;;;5074911;28;20031;-86
2023/07/26 07:07:53;;;;;;;25.60;7.95;;;;;;;;;;5074444;28;20064;-86
2023/07/26 07:10:19;;;;;;;23.88;8.07;;;;;;;;;;5075156;28;20094;-90
2023/07/26 07:12:45;;;;;;;16.15;7.88;;;;;;;;;;5075474;28;20024;-86
2023/07/26 07:15:11;;;;;;;27.23;7.68;;;;;;;;;;5075368;28;20032;-86
2023/07/26 07:17:37;;;;;;;20.67;7.53;;;;;;;;;;5077173;28;20028;-87
2023/07/26 07:20:05;;;;;;;20.83;7.10;;;;;;;;;;5075784;28;20043;-86
2023/07/26 07:22:32;;;;;;;25.67;8.18;;;;;;;;;;5073581;28;20021;-87
2023/07/26 07:24:58;;;;;;;25.98;8.07;;;;;;;;;;5073575;28;20380;-90
2023/07/26 07:27:24;;;;;;;19.45;7.78;;;;;;;;;;5073842;28;20021;-90
2023/07/26 07:29:51;;;;;;;17.13;7.53;;;;;;;;;;5073773;28;20070;-89
2023/07/26 07:32:17;;;;;;;21.80;8.38;;;;;;;;;;5073387;28;20025;-85
2023/07/26 07:34:43;;;;;;;25.95;7.97;;;;;;;;;;5073257;28;20028;-87
2023/07/26 07:37:09;;;;;;;23.92;8.63;;;;;;;;;;5073099;28;20063;-88
2023/07/26 07:39:36;;;;;;;21.10;8.48;;;;;;;;;;5073380;28;20107;-87
2023/07/26 07:42:03;;;;;;;23.23;6.97;;;;;;;;;;5073109;28;20032;-90
2023/07/26 07:44:29;;;;;;;18.58;8.20;;;;;;;;;;5073320;28;20115;-87
2023/07/26 07:46:55;;;;;;;19.05;7.57;;;;;;;;;;5073269;28;20117;-87
2023/07/26 07:49:21;;;;;;;17.75;7.28;;;;;;;;;;5073076;28;20024;-87
2023/07/26 07:51:47;;;;;;;21.20;6.97;;;;;;;;;;5072965;28;20024;-87
2023/07/26 07:54:14;;;;;;;20.33;7.70;;;;;;;;;;5073192;28;20031;-86
2023/07/26 07:56:40;;;;;;;19.75;6.50;;;;;;;;;;5072880;28;20024;-87
2023/07/26 07:59:06;;;;;;;22.55;6.97;;;;;;;;;;5073175;28;20025;-90
2023/07/26 08:01:32;;;;;;;20.25;7.22;;;;;;;;;;5073189;28;20380;-86
2023/07/26 08:03:59;;;;;;;22.42;7.70;;;;;;;;;;5073047;28;20032;-88
2023/07/26 08:06:26;;;;;;;29.25;8.60;;;;;;;;;;5073166;28;20028;-87
2023/07/26 08:08:52;;;;;;;15.20;6.95;;;;;;;;;;5073264;28;20467;-88
2023/07/26 08:11:18;;;;;;;14.65;6.38;;;;;;;;;;5089366;28;20040;-87
2023/07/26 08:13:44;;;;;;;17.63;7.47;;;;;;;;;;5074383;28;20027;-84
2023/07/26 08:16:12;;;;;;;24.88;7.80;;;;;;;;;;5080266;28;20024;-88
2023/07/26 08:18:38;;;;;;;19.75;7.65;;;;;;;;;;5093945;28;20020;-89
2023/07/26 08:21:05;;;;;;;20.65;7.50;;;;;;;;;;5095417;28;20058;-88
2023/07/26 08:23:32;;;;;;;18.58;7.75;;;;;;;;;;5094993;28;20069;-86
2023/07/26 08:26:04;;;;;;;20.92;6.90;;;;;;;;;;5094085;28;20023;-85
2023/07/26 08:28:31;;;;;;;14.18;6.30;;;;;;;;;;5094144;28;20020;-85
2023/07/26 08:30:57;;;;;;;18.13;6.70;;;;;;;;;;5094072;28;20032;-87
2023/07/26 08:33:23;;;;;;;18.30;6.90;;;;;;;;;;5097559;28;20487;-86
2023/07/26 08:35:49;;;;;;;17.13;7.43;;;;;;;;;;5098183;28;20025;-87
2023/07/26 08:38:17;;;;;;;14.52;6.65;;;;;;;;;;5104519;28;20033;-86
2023/07/26 08:40:47;;;;;;;18.15;6.95;;;;;;;;;;5118371;28;20029;-85
2023/07/26 08:43:14;;;;;;;10.77;5.93;;;;;;;;;;5097868;28;20051;-87
2023/07/26 08:45:43;;;;;;;16.95;6.78;;;;;;;;;;5100519;28;20027;-88
2023/07/26 08:48:18;;;;;;;21.42;6.78;;;;;;;;;;5097602;28;20020;-87
2023/07/26 08:50:44;;;;;;;12.68;6.15;;;;;;;;;;5097861;28;20036;-85
2023/07/26 08:53:10;;;;;;;21.35;6.53;;;;;;;;;;5098561;28;20023;-87
2023/07/26 08:55:36;;;;;;;21.45;6.88;;;;;;;;;;5097607;28;20024;-85
2023/07/26 08:58:04;;;;;;;13.88;6.40;;;;;;;;;;5097307;28;20149;-82
2023/07/26 09:00:30;;;;;;;20.40;7.28;;;;;;;;;;5097624;28;20028;-84
2023/07/26 09:02:59;;;;;;;18.42;7.55;;;;;;;;;;5097709;28;20027;-82
2023/07/26 09:05:25;;;;;;;18.10;6.85;;;;;;;;;;5097576;28;20020;-84
2023/07/26 09:07:52;;;;;;;18.63;6.88;;;;;;;;;;5100063;28;20103;-84
2023/07/26 09:10:28;;;;;;;17.33;6.85;;;;;;;;;;5099527;28;20052;-82
2023/07/26 09:13:10;;;;;;;23.45;6.75;;;;;;;;;;5097861;28;20027;-80
2023/07/26 09:15:37;;;;;;;22.52;7.32;;;;;;;;;;5098223;28;20024;-81
2023/07/26 09:18:04;;;;;;;20.13;6.63;;;;;;;;;;5097297;28;20418;-83
2023/07/26 09:20:31;;;;;;;17.98;6.45;;;;;;;;;;5095269;28;20028;-83
2023/07/26 09:23:06;;;;;;;15.25;5.80;;;;;;;;;;5096585;28;20426;-84
2023/07/26 09:25:32;;;;;;;16.10;7.30;;;;;;;;;;5096052;28;20024;-82
2023/07/26 09:27:59;;;;;;;19.00;6.65;;;;;;;;;;5094674;28;20020;-83
2023/07/26 09:30:25;;;;;;;17.88;5.45;;;;;;;;;;5094717;28;20027;-83
2023/07/26 09:32:51;;;;;;;15.57;6.18;;;;;;;;;;5094600;28;20073;-83
2023/07/26 09:35:17;;;;;;;14.95;5.78;;;;;;;;;;5096026;28;20028;-84
2023/07/26 09:37:44;;;;;;;13.57;6.30;;;;;;;;;;5094668;28;20110;-82
2023/07/26 09:40:11;;;;;;;18.42;5.97;;;;;;;;;;5091639;28;20046;-83
2023/07/26 09:42:46;;;;;;;15.50;5.78;;;;;;;;;;5091409;28;20032;-82
2023/07/26 09:45:19;;;;;;;14.02;6.85;;;;;;;;;;5086406;28;20016;-82
2023/07/26 09:47:46;;;;;;;17.33;5.85;;;;;;;;;;5092516;28;20020;-84
2023/07/26 09:50:25;;;;;;;18.92;6.15;;;;;;;;;;5081415;28;20040;-82
2023/07/26 09:52:53;;;;;;;16.83;7.45;;;;;;;;;;5073871;28;20063;-83
2023/07/26 09:55:20;;;;;;;15.65;6.05;;;;;;;;;;5075950;28;20051;-80
2023/07/26 09:57:48;;;;;;;17.48;6.55;;;;;;;;;;5089887;28;20068;-81
2023/07/26 10:00:15;;;;;;;16.50;7.43;;;;;;;;;;5079580;28;20045;-79
2023/07/26 10:02:42;;;;;;;15.30;6.88;;;;;;;;;;5073357;28;20020;-82
2023/07/26 10:05:10;;;;;;;18.98;7.32;;;;;;;;;;5073011;28;20579;-80
2023/07/26 10:07:37;;;;;;;13.27;6.40;;;;;;;;;;5073143;28;20029;-82
2023/07/26 10:10:06;;;;;;;15.00;6.82;;;;;;;;;;5075099;28;20052;-82
2023/07/26 10:12:33;;;;;;;21.60;6.30;;;;;;;;;;5090786;28;20024;-82
2023/07/26 10:15:05;;;;;;;15.90;6.10;;;;;;;;;;5076186;28;20138;-80
2023/07/26 10:17:31;;;;;;;21.48;7.47;;;;;;;;;;5076504;28;20031;-83
2023/07/26 10:19:58;;;;;;;15.73;6.72;;;;;;;;;;5092818;28;20101;-81
2023/07/26 10:22:25;;;;;;;13.98;6.85;;;;;;;;;;5093479;28;20031;-83
2023/07/26 10:24:51;;;;;;;16.85;8.38;;;;;;;;;;5095066;28;20054;-82
2023/07/26 10:27:18;;;;;;;13.00;6.50;;;;;;;;;;5094066;28;20140;-81
2023/07/26 10:29:44;;;;;;;13.38;6.85;;;;;;;;;;5110971;28;20028;-81
2023/07/26 10:32:11;;;;;;;14.50;6.85;;;;;;;;;;5095323;28;20028;-83
2023/07/26 10:34:37;;;;;;;12.23;6.22;;;;;;;;;;5095278;28;20364;-82
2023/07/26 10:37:16;;;;;;;15.23;6.68;;;;;;;;;;5110934;28;20024;-81
2023/07/26 10:39:42;;;;;;;12.73;6.55;;;;;;;;;;5111420;28;20463;-85
2023/07/26 10:42:21;;;;;;;11.70;6.68;;;;;;;;;;5111047;28;20028;-84
2023/07/26 10:44:48;;;;;;;13.85;6.57;;;;;;;;;;5108356;28;20115;-83
2023/07/26 10:47:14;;;;;;;14.57;5.80;;;;;;;;;;5110679;28;20017;-85
2023/07/26 10:49:44;;;;;;;11.30;5.55;;;;;;;;;;5111123;28;20024;-86
2023/07/26 10:52:11;;;;;;;12.80;5.93;;;;;;;;;;5097067;28;20028;-83
2023/07/26 10:54:37;;;;;;;12.27;5.55;;;;;;;;;;5096071;28;20032;-84
2023/07/26 10:57:22;;;;;;;9.55;6.05;;;;;;;;;;5095011;28;20024;-83
2023/07/26 10:59:52;;;;;;;13.73;7.28;;;;;;;;;;5094830;28;20368;-83
2023/07/26 11:02:36;;;;;;;12.30;7.20;;;;;;;;;;5095240;28;20028;-86
2023/07/26 11:05:06;;;;;;;13.63;6.03;;;;;;;;;;5095125;28;20043;-81
2023/07/26 11:07:51;;;;;;;8.25;5.45;;;;;;;;;;5093771;28;20028;-84
2023/07/26 11:10:21;;;;;;;8.90;5.30;;;;;;;;;;5093094;28;20036;-83
2023/07/26 11:13:04;;;;;;;14.43;6.43;;;;;;;;;;5093943;28;20027;-82
2023/07/26 11:15:31;;;;;;;13.93;6.38;;;;;;;;;;5095902;28;20020;-80
2023/07/26 11:17:57;;;;;;;14.38;6.50;;;;;;;;;;5100755;28;20472;-81
2023/07/26 11:20:30;;;;;;;13.57;7.07;;;;;;;;;;5101487;28;20513;-84
2023/07/26 11:22:56;;;;;;;13.95;7.00;;;;;;;;;;5103187;28;20521;-81
2023/07/26 11:25:22;;;;;;;11.48;5.78;;;;;;;;;;5098231;28;20058;-83
2023/07/26 11:27:49;;;;;;;12.85;6.13;;;;;;;;;;5097389;28;20042;-80
2023/07/26 11:30:16;;;;;;;13.85;5.93;;;;;;;;;;5115778;28;20008;-83
2023/07/26 11:32:46;;;;;;;14.23;5.97;;;;;;;;;;5096468;28;20028;-83
2023/07/26 11:35:12;;;;;;;11.65;6.18;;;;;;;;;;5097024;28;20012;-83
2023/07/26 11:37:38;;;;;;;12.80;6.60;;;;;;;;;;5094558;28;20050;-84
2023/07/26 11:40:05;;;;;;;9.27;5.68;;;;;;;;;;5092532;28;20026;-83
2023/07/26 11:42:34;;;;;;;11.82;4.50;;;;;;;;;;5092996;28;20028;-83
2023/07/26 11:45:04;;;;;;;11.23;5.03;;;;;;;;;;5093256;28;20050;-84
2023/07/26 11:47:36;;;;;;;10.60;4.93;;;;;;;;;;5092760;28;20052;-82
2023/07/26 11:50:03;;;;;;;12.73;6.38;;;;;;;;;;5092713;28;20048;-83
2023/07/26 11:52:30;;;;;;;11.80;4.53;;;;;;;;;;5092472;28;20032;-85
2023/07/26 11:54:57;;;;;;;12.95;4.82;;;;;;;;;;5092267;28;20020;-82
2023/07/26 11:57:25;;;;;;;8.75;4.22;;;;;;;;;;5092821;28;20156;-82
2023/07/26 11:59:51;;;;;;;13.40;4.88;;;;;;;;;;5094025;28;20024;-83
2023/07/26 12:02:17;;;;;;;9.65;4.57;;;;;;;;;;5092438;28;20024;-83
2023/07/26 12:05:03;;;;;;;7.88;4.70;;;;;;;;;;5075683;28;20024;-82
2023/07/26 12:07:29;;;;;;;10.35;5.22;;;;;;;;;;5111452;28;20059;-81
2023/07/26 12:09:56;;;;;;;12.10;5.07;;;;;;;;;;5103135;28;20403;-83
2023/07/26 12:12:22;;;;;;;9.18;4.53;;;;;;;;;;5096846;28;20043;-82
2023/07/26 12:14:48;;;;;;;8.10;4.82;;;;;;;;;;5113751;28;20056;-81
2023/07/26 12:17:14;;;;;;;10.40;4.55;;;;;;;;;;5115861;28;20027;-84
2023/07/26 12:19:44;;;;;;;14.20;5.93;;;;;;;;;;5113557;28;20024;-84
2023/07/26 12:22:11;;;;;;;12.48;5.20;;;;;;;;;;5096805;28;20028;-85
2023/07/26 12:24:54;;;;;;;8.80;4.78;;;;;;;;;;5096754;28;20438;-85
2023/07/26 12:27:20;;;;;;;9.20;5.25;;;;;;;;;;5096565;28;20459;-86
2023/07/26 12:29:47;;;;;;;12.77;6.45;;;;;;;;;;5096531;28;20077;-85
2023/07/26 12:32:17;;;;;;;9.68;5.22;;;;;;;;;;5109222;28;20418;-83
2023/07/26 12:34:45;;;;;;;9.82;6.15;;;;;;;;;;5107755;28;20081;-82
2023/07/26 12:37:11;;;;;;;14.00;6.45;;;;;;;;;;5096220;28;20028;-85
2023/07/26 12:39:37;;;;;;;8.30;6.03;;;;;;;;;;5096297;28;20016;-84
2023/07/26 12:42:04;;;;;;;10.25;5.85;;;;;;;;;;5097608;28;20052;-84
2023/07/26 12:44:30;;;;;;;13.63;6.20;;;;;;;;;;5094836;28;20020;-84
2023/07/26 12:46:56;;;;;;;7.80;5.35;;;;;;;;;;5113267;28;20027;-84
2023/07/26 12:49:22;;;;;;;10.38;6.10;;;;;;;;;;5103684;28;20031;-88
2023/07/26 12:51:49;;;;;;;11.38;5.57;;;;;;;;;;5096043;28;20073;-85
2023/07/26 12:54:15;;;;;;;9.68;6.10;;;;;;;;;;5096265;28;20028;-80
2023/07/26 12:56:40;;;;;;;11.05;5.70;;;870.90;2073.60;;;;;;5093965;28;20023;-82
2023/07/26 12:59:06;;;;;;;9.38;5.28;;;;;;;;;;5076291;28;20446;-84
2023/07/26 13:01:33;;;;;;;8.50;5.05;;;;;;;;;;5093159;28;20126;-83
2023/07/26 13:03:59;;;;;;;27.05;5.90;;;;;;;;;;5100177;28;20023;-83
2023/07/26 13:06:25;;;;;;;6.63;4.80;;;;;;;;;;5097509;28;20078;-81
2023/07/26 13:08:52;;;;;;;8.90;4.72;;;;;;;;;;5096150;28;20035;-84
2023/07/26 13:11:18;;;;;;;7.75;5.20;;;;;;;;;;5095378;28;20044;-86
2023/07/26 13:13:44;;;;;;;10.82;5.53;;;;;;;;;;5095768;28;20081;-83
2023/07/26 13:16:10;;;;;;;10.48;6.18;;;;;;;;;;5095699;28;20472;-84
2023/07/26 13:18:36;;;;;;;12.07;6.80;;;;;;;;;;5095188;28;20024;-80
2023/07/26 13:21:02;;;;;;;13.00;8.65;;;;;;;;;;5095577;28;20057;-83
2023/07/26 13:23:28;;;;;;;12.57;8.43;;;;;;;;;;5095171;28;20063;-81
2023/07/26 13:25:54;;;;;;;12.63;10.63;;;;;;;;;;5095553;28;20547;-84
2023/07/26 13:28:20;;;;;;;12.02;10.82;;;;;;;;;;5095084;28;20418;-81
2023/07/26 13:30:47;;;;;;;14.73;12.55;;;;;;;;;;5095229;28;20066;-81
2023/07/26 13:33:13;;;;;;;14.48;11.52;;;;;;;;;;5095439;28;20555;-80
2023/07/26 13:35:39;;;;;;;13.55;11.70;;;;;;;;;;5096103;28;20383;-79
2023/07/26 13:38:05;;;;;;;14.40;12.43;;;;;;;;;;5094323;28;20415;-79
2023/07/26 13:40:31;;;;;;;18.45;13.70;;;;;;;;;;5091809;28;20031;-80
2023/07/26 13:42:59;;;;;;;19.40;16.60;;;;;;;;;;5095507;28;20012;-80
2023/07/26 13:45:25;;;;;;;18.15;16.35;;;768.80;2176.00;;;;;;5094346;28;20020;-80
2023/07/26 13:47:51;;;;;;;17.67;15.77;;;;;;;;;;5088156;28;20024;-81
2023/07/26 13:50:17;;;;;;;16.35;14.82;;;;;;;;;;5094127;28;20043;-81
2023/07/26 13:52:43;;;;;;;16.45;14.75;;;;;;;;;;5094246;28;20066;-82
2023/07/26 13:55:09;;;;;;;16.70;13.93;;;;;;;;;;5095368;28;20517;-78
2023/07/26 13:57:35;;;;;;;17.17;13.55;;;;;;;;;;5086491;28;20051;-79
2023/07/26 14:00:02;;;;;;;15.88;13.80;;;;;;;;;;5094438;28;20028;-80
2023/07/26 14:02:28;;;;;;;19.10;16.55;;;;;;;;;;5093984;28;20043;-80
2023/07/26 14:04:54;;;;;;;17.38;15.38;;;;;;;;;;5093992;28;20132;-80
2023/07/26 14:07:20;;;;;;;25.40;18.42;;;;;;;;;;5094328;28;20028;-78
2023/07/26 14:09:46;;;;;;;20.23;18.33;;;;;;;;;;5095277;28;20043;-79
2023/07/26 14:12:15;;;;;;;20.00;17.83;;;;;;;;;;5093473;28;20043;-81
2023/07/26 14:14:41;;;;;;;21.48;19.25;;;;;;;;;;5094124;28;20031;-78
2023/07/26 14:17:07;;;;;;;21.27;19.17;;;;;;;;;;5094011;28;20016;-81
2023/07/26 14:19:34;;;;;;;22.10;19.70;;;;;;;;;;5094219;28;20027;-82
2023/07/26 14:22:02;;;;;;;20.70;18.60;;;;;;;;;;5094092;28;20505;-79
2023/07/26 14:24:28;;;;;;;20.83;18.70;;;;;;;;;;5093922;28;20031;-80